Airfield :
LOGIN :

Register | Disclaimer

   EN    FR    IT 

 










Legend :    VFR   Marginal VFR   IFR   Intensive IFR   Very Intensive IFR
Visi :
Ceiling :
>= 8 km
>= 3000ft
5 to 8 km
1000 to 3000 ft
1500m to 5 km
500 to 1000 ft
800 to 1500m
200 to 500 ft
< 800m
< 200 ft
Symbols :   Thunderstorms  Fog  Heavy snow  Heavy precipitations  Wind > 20 kt
SIGMETs :     Misc.  Thunderstorms  Icing  Turbulence  Mountain Waves  Volcanic Ashes






- Airport Elevation : 33 ft
- IATA code : MHZ


EGUN - RAF Mildenhall

CURRENT METAR :
  • 241056Z 22022G28KT 9000 -RA BKN014 BKN018 11/09 A2966 RMK SLP043 ALSTG ESTMD RVRNO

EXPIRED METARs :
  • 240955Z 23016G25KT 9999 OVC016 10/09 A2968 RMK SLP053 WND DATA ESTMD ALTSG ESTMD RVRNO

TAF AMD TAF EGUN
Valid from the 24 at 10:00 until the 25 at 10:00 UTC


241002Z 2410/2510 17010G20KT 8000 -SHRA BKN015 QNH2967INS
BECMG 2410/2411 24025G35KT 8000 -SHRA BKN010 510005 QNH2963INS
BECMG 2413/2414 25030G40KT 9999 NSW BKN015 520005 QNH2953INS
TEMPO 2417/2420 BKN020
BECMG 2419/2420 27025G30KT 9999 BKN030 510005 QNH2955INS TX11/2414Z TN04/2504Z



MET'MAP, your aeronautical weather chart ! - Copyright ORBIFLY December 2007 - Disclaimer

ORBIFLY MET'MAP TEAM :

Programming & Development : Alexandra Zaïnal
Concept & original design : Baudouin d'Aumeries
Assistance for programming : Marc-Olivier Méhu
Technical & hardware support : Manuel Goepfert

Contact : metmap@orbifly.com




SOURCES & CREDITS :

   NOAA